sensor_id;sensor_type;location;lat;lon;timestamp;P1;durP1;ratioP1;P2;durP2;ratioP2
72771;SDS011;60894;42.544;1.516;2023-05-17T00:01:02;4.65;;;1.38;;
72771;SDS011;60894;42.544;1.516;2023-05-17T00:03:29;4.32;;;1.30;;
72771;SDS011;60894;42.544;1.516;2023-05-17T00:05:55;3.47;;;1.20;;
72771;SDS011;60894;42.544;1.516;2023-05-17T00:08:22;5.80;;;1.20;;
72771;SDS011;60894;42.544;1.516;2023-05-17T00:10:49;2.77;;;1.07;;
72771;SDS011;60894;42.544;1.516;2023-05-17T00:13:16;6.22;;;1.33;;
72771;SDS011;60894;42.544;1.516;2023-05-17T00:15:45;5.28;;;1.50;;
72771;SDS011;60894;42.544;1.516;2023-05-17T00:18:11;4.22;;;1.30;;
72771;SDS011;60894;42.544;1.516;2023-05-17T00:20:38;4.40;;;1.30;;
72771;SDS011;60894;42.544;1.516;2023-05-17T00:23:05;3.73;;;1.20;;
72771;SDS011;60894;42.544;1.516;2023-05-17T00:25:32;3.75;;;1.10;;
72771;SDS011;60894;42.544;1.516;2023-05-17T00:27:59;4.28;;;1.30;;
72771;SDS011;60894;42.544;1.516;2023-05-17T00:30:26;5.20;;;1.70;;
72771;SDS011;60894;42.544;1.516;2023-05-17T00:32:54;4.07;;;1.40;;
72771;SDS011;60894;42.544;1.516;2023-05-17T00:35:21;3.50;;;1.13;;
72771;SDS011;60894;42.544;1.516;2023-05-17T00:37:49;4.65;;;1.20;;
72771;SDS011;60894;42.544;1.516;2023-05-17T00:40:15;3.30;;;1.20;;
72771;SDS011;60894;42.544;1.516;2023-05-17T00:42:42;4.78;;;1.48;;
72771;SDS011;60894;42.544;1.516;2023-05-17T00:45:09;2.63;;;1.10;;
72771;SDS011;60894;42.544;1.516;2023-05-17T00:47:36;3.27;;;1.13;;
72771;SDS011;60894;42.544;1.516;2023-05-17T00:50:05;3.25;;;1.30;;
72771;SDS011;60894;42.544;1.516;2023-05-17T00:52:32;4.78;;;1.20;;
72771;SDS011;60894;42.544;1.516;2023-05-17T00:55:00;7.40;;;1.63;;
72771;SDS011;60894;42.544;1.516;2023-05-17T00:57:27;5.57;;;1.30;;
72771;SDS011;60894;42.544;1.516;2023-05-17T00:59:56;4.33;;;1.30;;
72771;SDS011;60894;42.544;1.516;2023-05-17T01:02:23;2.35;;;0.98;;
72771;SDS011;60894;42.544;1.516;2023-05-17T01:04:50;4.15;;;1.10;;
72771;SDS011;60894;42.544;1.516;2023-05-17T01:07:18;2.15;;;1.02;;
72771;SDS011;60894;42.544;1.516;2023-05-17T01:09:45;4.78;;;1.13;;
72771;SDS011;60894;42.544;1.516;2023-05-17T01:12:14;5.23;;;1.10;;
72771;SDS011;60894;42.544;1.516;2023-05-17T01:14:50;5.10;;;1.20;;
72771;SDS011;60894;42.544;1.516;2023-05-17T01:17:27;6.38;;;1.23;;
72771;SDS011;60894;42.544;1.516;2023-05-17T01:20:07;3.35;;;1.10;;
72771;SDS011;60894;42.544;1.516;2023-05-17T01:22:46;6.38;;;1.35;;
72771;SDS011;60894;42.544;1.516;2023-05-17T01:25:30;6.70;;;1.40;;
72771;SDS011;60894;42.544;1.516;2023-05-17T01:28:08;2.22;;;0.90;;
72771;SDS011;60894;42.544;1.516;2023-05-17T01:30:37;3.25;;;1.10;;
72771;SDS011;60894;42.544;1.516;2023-05-17T01:33:05;4.13;;;1.20;;
72771;SDS011;60894;42.544;1.516;2023-05-17T01:35:33;4.35;;;1.00;;
72771;SDS011;60894;42.544;1.516;2023-05-17T01:38:00;3.57;;;1.00;;
72771;SDS011;60894;42.544;1.516;2023-05-17T01:40:27;4.28;;;1.33;;
72771;SDS011;60894;42.544;1.516;2023-05-17T01:42:59;3.85;;;1.10;;
72771;SDS011;60894;42.544;1.516;2023-05-17T01:45:34;3.70;;;1.10;;
72771;SDS011;60894;42.544;1.516;2023-05-17T01:48:10;4.75;;;1.30;;
72771;SDS011;60894;42.544;1.516;2023-05-17T01:50:44;3.67;;;0.83;;
72771;SDS011;60894;42.544;1.516;2023-05-17T01:53:16;3.03;;;0.95;;
72771;SDS011;60894;42.544;1.516;2023-05-17T01:55:46;3.22;;;1.10;;
72771;SDS011;60894;42.544;1.516;2023-05-17T01:58:17;3.92;;;1.10;;
72771;SDS011;60894;42.544;1.516;2023-05-17T02:00:48;3.28;;;1.20;;
72771;SDS011;60894;42.544;1.516;2023-05-17T02:03:18;3.80;;;1.00;;
72771;SDS011;60894;42.544;1.516;2023-05-17T02:05:45;3.15;;;1.20;;
72771;SDS011;60894;42.544;1.516;2023-05-17T02:08:13;4.90;;;1.25;;
72771;SDS011;60894;42.544;1.516;2023-05-17T02:10:40;5.20;;;1.27;;
72771;SDS011;60894;42.544;1.516;2023-05-17T02:13:07;3.15;;;1.10;;
72771;SDS011;60894;42.544;1.516;2023-05-17T02:15:34;4.43;;;1.40;;
72771;SDS011;60894;42.544;1.516;2023-05-17T02:18:03;4.47;;;1.17;;
72771;SDS011;60894;42.544;1.516;2023-05-17T02:20:29;3.80;;;0.93;;
72771;SDS011;60894;42.544;1.516;2023-05-17T02:22:56;3.70;;;0.90;;
72771;SDS011;60894;42.544;1.516;2023-05-17T02:25:23;3.72;;;1.10;;
72771;SDS011;60894;42.544;1.516;2023-05-17T02:27:50;4.80;;;1.07;;
72771;SDS011;60894;42.544;1.516;2023-05-17T02:30:17;3.08;;;1.00;;
72771;SDS011;60894;42.544;1.516;2023-05-17T02:32:46;3.35;;;1.20;;
72771;SDS011;60894;42.544;1.516;2023-05-17T02:35:15;3.63;;;1.00;;
72771;SDS011;60894;42.544;1.516;2023-05-17T02:37:42;3.20;;;1.10;;
72771;SDS011;60894;42.544;1.516;2023-05-17T02:40:09;2.07;;;0.90;;
72771;SDS011;60894;42.544;1.516;2023-05-17T02:42:36;3.60;;;1.10;;
72771;SDS011;60894;42.544;1.516;2023-05-17T02:45:03;2.75;;;0.90;;
72771;SDS011;60894;42.544;1.516;2023-05-17T02:47:31;4.00;;;1.27;;
72771;SDS011;60894;42.544;1.516;2023-05-17T02:49:58;4.07;;;1.00;;
72771;SDS011;60894;42.544;1.516;2023-05-17T02:52:26;5.80;;;1.00;;
72771;SDS011;60894;42.544;1.516;2023-05-17T02:54:53;3.33;;;1.00;;
72771;SDS011;60894;42.544;1.516;2023-05-17T02:57:20;3.97;;;0.90;;
72771;SDS011;60894;42.544;1.516;2023-05-17T02:59:47;4.55;;;1.00;;
72771;SDS011;60894;42.544;1.516;2023-05-17T03:02:14;2.70;;;1.02;;
72771;SDS011;60894;42.544;1.516;2023-05-17T03:04:41;6.13;;;1.20;;
72771;SDS011;60894;42.544;1.516;2023-05-17T03:07:08;3.05;;;0.98;;
72771;SDS011;60894;42.544;1.516;2023-05-17T03:09:37;3.45;;;0.90;;
72771;SDS011;60894;42.544;1.516;2023-05-17T03:12:04;2.97;;;0.98;;
72771;SDS011;60894;42.544;1.516;2023-05-17T03:14:31;3.03;;;0.90;;
72771;SDS011;60894;42.544;1.516;2023-05-17T03:16:58;3.60;;;1.00;;
72771;SDS011;60894;42.544;1.516;2023-05-17T03:19:25;5.35;;;1.15;;
72771;SDS011;60894;42.544;1.516;2023-05-17T03:21:52;3.08;;;0.80;;
72771;SDS011;60894;42.544;1.516;2023-05-17T03:24:19;2.72;;;1.10;;
72771;SDS011;60894;42.544;1.516;2023-05-17T03:26:48;2.58;;;0.82;;
72771;SDS011;60894;42.544;1.516;2023-05-17T03:29:15;3.00;;;1.10;;
72771;SDS011;60894;42.544;1.516;2023-05-17T03:31:41;2.58;;;1.00;;
72771;SDS011;60894;42.544;1.516;2023-05-17T03:34:08;3.22;;;1.00;;
72771;SDS011;60894;42.544;1.516;2023-05-17T03:36:36;3.10;;;0.80;;
72771;SDS011;60894;42.544;1.516;2023-05-17T03:39:03;3.20;;;1.00;;
72771;SDS011;60894;42.544;1.516;2023-05-17T03:41:30;2.70;;;0.90;;
72771;SDS011;60894;42.544;1.516;2023-05-17T03:43:59;4.22;;;1.00;;
72771;SDS011;60894;42.544;1.516;2023-05-17T03:46:25;2.78;;;0.90;;
72771;SDS011;60894;42.544;1.516;2023-05-17T03:48:52;2.42;;;0.80;;
72771;SDS011;60894;42.544;1.516;2023-05-17T03:51:19;3.20;;;1.00;;
72771;SDS011;60894;42.544;1.516;2023-05-17T03:53:46;3.43;;;0.87;;
72771;SDS011;60894;42.544;1.516;2023-05-17T03:56:13;2.58;;;0.90;;
72771;SDS011;60894;42.544;1.516;2023-05-17T03:58:42;3.22;;;1.08;;
72771;SDS011;60894;42.544;1.516;2023-05-17T04:01:10;5.60;;;1.15;;
72771;SDS011;60894;42.544;1.516;2023-05-17T04:03:37;3.67;;;1.10;;
72771;SDS011;60894;42.544;1.516;2023-05-17T04:06:04;2.23;;;1.00;;
72771;SDS011;60894;42.544;1.516;2023-05-17T04:08:32;2.47;;;0.80;;
72771;SDS011;60894;42.544;1.516;2023-05-17T04:10:59;3.28;;;1.10;;
72771;SDS011;60894;42.544;1.516;2023-05-17T04:13:34;3.45;;;0.90;;
72771;SDS011;60894;42.544;1.516;2023-05-17T04:16:01;4.93;;;1.10;;
72771;SDS011;60894;42.544;1.516;2023-05-17T04:18:30;1.70;;;0.73;;
72771;SDS011;60894;42.544;1.516;2023-05-17T04:20:58;3.40;;;0.93;;
72771;SDS011;60894;42.544;1.516;2023-05-17T04:23:25;4.00;;;1.00;;
72771;SDS011;60894;42.544;1.516;2023-05-17T04:25:52;4.93;;;1.00;;
72771;SDS011;60894;42.544;1.516;2023-05-17T04:28:19;3.38;;;0.90;;
72771;SDS011;60894;42.544;1.516;2023-05-17T04:30:46;2.80;;;0.87;;
72771;SDS011;60894;42.544;1.516;2023-05-17T04:33:13;2.80;;;1.00;;
72771;SDS011;60894;42.544;1.516;2023-05-17T04:35:41;5.32;;;1.20;;
72771;SDS011;60894;42.544;1.516;2023-05-17T04:38:08;1.95;;;0.80;;
72771;SDS011;60894;42.544;1.516;2023-05-17T04:40:36;3.33;;;0.93;;
72771;SDS011;60894;42.544;1.516;2023-05-17T04:43:03;4.20;;;1.00;;
72771;SDS011;60894;42.544;1.516;2023-05-17T04:45:31;4.85;;;1.15;;
72771;SDS011;60894;42.544;1.516;2023-05-17T04:47:58;4.32;;;1.15;;
72771;SDS011;60894;42.544;1.516;2023-05-17T04:50:25;4.22;;;1.15;;
72771;SDS011;60894;42.544;1.516;2023-05-17T04:52:53;2.90;;;0.85;;
72771;SDS011;60894;42.544;1.516;2023-05-17T04:55:21;2.13;;;0.87;;
72771;SDS011;60894;42.544;1.516;2023-05-17T04:57:47;3.55;;;1.25;;
72771;SDS011;60894;42.544;1.516;2023-05-17T05:00:15;3.05;;;1.00;;
72771;SDS011;60894;42.544;1.516;2023-05-17T05:02:43;3.72;;;1.20;;
72771;SDS011;60894;42.544;1.516;2023-05-17T05:05:10;3.42;;;1.20;;
72771;SDS011;60894;42.544;1.516;2023-05-17T05:07:37;4.73;;;1.20;;
72771;SDS011;60894;42.544;1.516;2023-05-17T05:10:06;4.60;;;1.30;;
72771;SDS011;60894;42.544;1.516;2023-05-17T05:12:33;4.57;;;1.10;;
72771;SDS011;60894;42.544;1.516;2023-05-17T05:15:00;3.65;;;1.15;;
72771;SDS011;60894;42.544;1.516;2023-05-17T05:17:28;3.58;;;1.23;;
72771;SDS011;60894;42.544;1.516;2023-05-17T05:19:56;3.43;;;1.00;;
72771;SDS011;60894;42.544;1.516;2023-05-17T05:22:23;5.18;;;1.30;;
72771;SDS011;60894;42.544;1.516;2023-05-17T05:24:50;5.90;;;1.65;;
72771;SDS011;60894;42.544;1.516;2023-05-17T05:27:18;5.15;;;1.60;;
72771;SDS011;60894;42.544;1.516;2023-05-17T05:29:45;4.53;;;1.27;;
72771;SDS011;60894;42.544;1.516;2023-05-17T05:32:12;4.47;;;1.30;;
72771;SDS011;60894;42.544;1.516;2023-05-17T05:34:41;5.18;;;1.90;;
72771;SDS011;60894;42.544;1.516;2023-05-17T05:37:08;4.15;;;1.60;;
72771;SDS011;60894;42.544;1.516;2023-05-17T05:39:35;5.90;;;1.70;;
72771;SDS011;60894;42.544;1.516;2023-05-17T05:42:02;7.70;;;3.22;;
72771;SDS011;60894;42.544;1.516;2023-05-17T05:44:30;9.00;;;2.60;;
72771;SDS011;60894;42.544;1.516;2023-05-17T05:46:57;7.82;;;2.63;;
72771;SDS011;60894;42.544;1.516;2023-05-17T05:49:24;6.88;;;2.53;;
72771;SDS011;60894;42.544;1.516;2023-05-17T05:51:51;7.93;;;2.30;;
72771;SDS011;60894;42.544;1.516;2023-05-17T05:54:18;8.10;;;2.78;;
72771;SDS011;60894;42.544;1.516;2023-05-17T05:56:45;9.97;;;4.10;;
72771;SDS011;60894;42.544;1.516;2023-05-17T05:59:12;8.85;;;3.50;;
72771;SDS011;60894;42.544;1.516;2023-05-17T06:01:40;8.18;;;2.50;;
72771;SDS011;60894;42.544;1.516;2023-05-17T06:04:07;6.90;;;2.45;;
72771;SDS011;60894;42.544;1.516;2023-05-17T06:06:34;10.18;;;4.60;;
72771;SDS011;60894;42.544;1.516;2023-05-17T06:09:01;5.57;;;1.57;;
72771;SDS011;60894;42.544;1.516;2023-05-17T06:11:31;7.80;;;3.28;;
72771;SDS011;60894;42.544;1.516;2023-05-17T06:13:58;5.78;;;1.60;;
72771;SDS011;60894;42.544;1.516;2023-05-17T06:16:25;5.63;;;1.10;;
72771;SDS011;60894;42.544;1.516;2023-05-17T06:18:53;4.22;;;1.27;;
72771;SDS011;60894;42.544;1.516;2023-05-17T06:21:20;4.57;;;1.57;;
72771;SDS011;60894;42.544;1.516;2023-05-17T06:23:47;4.90;;;1.15;;
72771;SDS011;60894;42.544;1.516;2023-05-17T06:26:14;3.47;;;1.00;;
72771;SDS011;60894;42.544;1.516;2023-05-17T06:28:41;2.95;;;0.88;;
72771;SDS011;60894;42.544;1.516;2023-05-17T06:31:08;5.35;;;1.60;;
72771;SDS011;60894;42.544;1.516;2023-05-17T06:33:35;4.30;;;1.50;;
72771;SDS011;60894;42.544;1.516;2023-05-17T06:36:03;3.85;;;1.50;;
72771;SDS011;60894;42.544;1.516;2023-05-17T06:38:30;4.85;;;1.20;;
72771;SDS011;60894;42.544;1.516;2023-05-17T06:40:57;5.20;;;1.25;;
72771;SDS011;60894;42.544;1.516;2023-05-17T06:43:24;2.70;;;1.10;;
72771;SDS011;60894;42.544;1.516;2023-05-17T06:45:51;2.83;;;1.10;;
72771;SDS011;60894;42.544;1.516;2023-05-17T06:48:18;6.47;;;1.30;;
72771;SDS011;60894;42.544;1.516;2023-05-17T06:50:45;3.22;;;1.17;;
72771;SDS011;60894;42.544;1.516;2023-05-17T06:53:13;4.63;;;1.30;;
72771;SDS011;60894;42.544;1.516;2023-05-17T06:55:40;3.72;;;1.25;;
72771;SDS011;60894;42.544;1.516;2023-05-17T06:58:07;5.47;;;1.43;;
72771;SDS011;60894;42.544;1.516;2023-05-17T07:00:34;6.00;;;1.20;;
72771;SDS011;60894;42.544;1.516;2023-05-17T07:03:01;5.53;;;1.38;;
72771;SDS011;60894;42.544;1.516;2023-05-17T07:05:28;3.33;;;1.20;;
72771;SDS011;60894;42.544;1.516;2023-05-17T07:07:56;3.75;;;1.15;;
72771;SDS011;60894;42.544;1.516;2023-05-17T07:10:25;3.13;;;1.10;;
72771;SDS011;60894;42.544;1.516;2023-05-17T07:12:52;3.80;;;1.45;;
72771;SDS011;60894;42.544;1.516;2023-05-17T07:15:19;3.63;;;1.30;;
72771;SDS011;60894;42.544;1.516;2023-05-17T07:17:46;4.25;;;1.50;;
72771;SDS011;60894;42.544;1.516;2023-05-17T07:20:13;4.95;;;1.63;;
72771;SDS011;60894;42.544;1.516;2023-05-17T07:22:40;5.20;;;1.50;;
72771;SDS011;60894;42.544;1.516;2023-05-17T07:25:08;5.28;;;1.60;;
72771;SDS011;60894;42.544;1.516;2023-05-17T07:27:36;4.53;;;1.58;;
72771;SDS011;60894;42.544;1.516;2023-05-17T07:30:04;6.25;;;1.52;;
72771;SDS011;60894;42.544;1.516;2023-05-17T07:32:32;3.88;;;1.20;;
72771;SDS011;60894;42.544;1.516;2023-05-17T07:34:59;4.93;;;1.37;;
72771;SDS011;60894;42.544;1.516;2023-05-17T07:37:27;5.35;;;1.98;;
72771;SDS011;60894;42.544;1.516;2023-05-17T07:39:54;5.03;;;1.50;;
72771;SDS011;60894;42.544;1.516;2023-05-17T07:42:21;5.45;;;1.73;;
72771;SDS011;60894;42.544;1.516;2023-05-17T07:44:49;6.03;;;1.75;;
72771;SDS011;60894;42.544;1.516;2023-05-17T07:47:16;4.53;;;1.40;;
72771;SDS011;60894;42.544;1.516;2023-05-17T07:49:43;6.80;;;1.50;;
72771;SDS011;60894;42.544;1.516;2023-05-17T07:52:10;5.78;;;1.60;;
72771;SDS011;60894;42.544;1.516;2023-05-17T07:54:37;6.53;;;1.63;;
72771;SDS011;60894;42.544;1.516;2023-05-17T07:57:04;5.95;;;1.70;;
72771;SDS011;60894;42.544;1.516;2023-05-17T07:59:31;5.00;;;1.40;;
72771;SDS011;60894;42.544;1.516;2023-05-17T08:01:59;8.10;;;1.80;;
72771;SDS011;60894;42.544;1.516;2023-05-17T08:04:27;5.63;;;1.52;;
72771;SDS011;60894;42.544;1.516;2023-05-17T08:06:53;5.53;;;1.65;;
72771;SDS011;60894;42.544;1.516;2023-05-17T08:09:20;6.43;;;1.90;;
72771;SDS011;60894;42.544;1.516;2023-05-17T08:11:47;5.23;;;1.60;;
72771;SDS011;60894;42.544;1.516;2023-05-17T08:14:15;6.93;;;1.70;;
72771;SDS011;60894;42.544;1.516;2023-05-17T08:16:42;5.35;;;1.58;;
72771;SDS011;60894;42.544;1.516;2023-05-17T08:19:12;5.90;;;1.55;;
72771;SDS011;60894;42.544;1.516;2023-05-17T08:21:40;6.45;;;1.67;;
72771;SDS011;60894;42.544;1.516;2023-05-17T08:24:08;5.70;;;1.60;;
72771;SDS011;60894;42.544;1.516;2023-05-17T08:26:35;6.90;;;1.70;;
72771;SDS011;60894;42.544;1.516;2023-05-17T08:29:02;6.13;;;1.70;;
72771;SDS011;60894;42.544;1.516;2023-05-17T08:31:30;6.03;;;1.63;;
72771;SDS011;60894;42.544;1.516;2023-05-17T08:33:57;6.72;;;2.00;;
72771;SDS011;60894;42.544;1.516;2023-05-17T08:36:26;5.80;;;1.83;;
72771;SDS011;60894;42.544;1.516;2023-05-17T08:38:53;11.23;;;2.25;;
72771;SDS011;60894;42.544;1.516;2023-05-17T08:41:20;6.35;;;1.92;;
72771;SDS011;60894;42.544;1.516;2023-05-17T08:43:47;8.80;;;1.80;;
72771;SDS011;60894;42.544;1.516;2023-05-17T08:46:15;5.85;;;1.70;;
72771;SDS011;60894;42.544;1.516;2023-05-17T08:48:45;6.67;;;1.90;;
72771;SDS011;60894;42.544;1.516;2023-05-17T08:51:16;5.90;;;1.88;;
72771;SDS011;60894;42.544;1.516;2023-05-17T08:53:46;10.20;;;2.40;;
72771;SDS011;60894;42.544;1.516;2023-05-17T08:56:15;7.72;;;2.53;;
72771;SDS011;60894;42.544;1.516;2023-05-17T08:58:43;9.40;;;2.08;;
72771;SDS011;60894;42.544;1.516;2023-05-17T09:01:13;5.57;;;1.83;;
72771;SDS011;60894;42.544;1.516;2023-05-17T09:03:42;5.13;;;1.80;;
72771;SDS011;60894;42.544;1.516;2023-05-17T09:06:12;4.07;;;1.60;;
72771;SDS011;60894;42.544;1.516;2023-05-17T09:08:41;5.00;;;1.75;;
72771;SDS011;60894;42.544;1.516;2023-05-17T09:11:10;6.97;;;1.73;;
72771;SDS011;60894;42.544;1.516;2023-05-17T09:13:36;5.83;;;1.70;;
72771;SDS011;60894;42.544;1.516;2023-05-17T09:16:11;6.80;;;2.03;;
72771;SDS011;60894;42.544;1.516;2023-05-17T09:18:39;5.97;;;1.70;;
72771;SDS011;60894;42.544;1.516;2023-05-17T09:21:06;5.18;;;1.73;;
72771;SDS011;60894;42.544;1.516;2023-05-17T09:23:36;6.97;;;1.88;;
72771;SDS011;60894;42.544;1.516;2023-05-17T09:26:03;6.27;;;2.00;;
72771;SDS011;60894;42.544;1.516;2023-05-17T09:28:42;6.68;;;1.92;;
72771;SDS011;60894;42.544;1.516;2023-05-17T09:31:10;9.45;;;2.20;;
72771;SDS011;60894;42.544;1.516;2023-05-17T09:33:42;10.02;;;1.80;;
72771;SDS011;60894;42.544;1.516;2023-05-17T09:36:16;6.28;;;2.17;;
72771;SDS011;60894;42.544;1.516;2023-05-17T09:38:50;6.83;;;1.80;;
72771;SDS011;60894;42.544;1.516;2023-05-17T09:41:18;6.00;;;1.80;;
72771;SDS011;60894;42.544;1.516;2023-05-17T09:43:47;6.80;;;1.98;;
72771;SDS011;60894;42.544;1.516;2023-05-17T09:46:14;6.68;;;1.98;;
72771;SDS011;60894;42.544;1.516;2023-05-17T09:48:41;6.38;;;1.80;;
72771;SDS011;60894;42.544;1.516;2023-05-17T09:51:10;6.70;;;2.00;;
72771;SDS011;60894;42.544;1.516;2023-05-17T09:53:37;11.63;;;1.92;;
72771;SDS011;60894;42.544;1.516;2023-05-17T09:56:06;10.60;;;2.03;;
72771;SDS011;60894;42.544;1.516;2023-05-17T09:58:34;10.55;;;1.95;;
72771;SDS011;60894;42.544;1.516;2023-05-17T10:01:04;6.93;;;2.10;;
72771;SDS011;60894;42.544;1.516;2023-05-17T10:03:33;10.30;;;2.50;;
72771;SDS011;60894;42.544;1.516;2023-05-17T10:06:02;6.82;;;2.03;;
72771;SDS011;60894;42.544;1.516;2023-05-17T10:08:31;7.03;;;2.22;;
72771;SDS011;60894;42.544;1.516;2023-05-17T10:11:02;5.45;;;1.80;;
72771;SDS011;60894;42.544;1.516;2023-05-17T10:13:33;6.05;;;1.83;;
72771;SDS011;60894;42.544;1.516;2023-05-17T10:16:01;6.90;;;2.10;;
72771;SDS011;60894;42.544;1.516;2023-05-17T10:18:30;7.70;;;2.00;;
72771;SDS011;60894;42.544;1.516;2023-05-17T10:20:57;6.43;;;1.77;;
72771;SDS011;60894;42.544;1.516;2023-05-17T10:23:26;6.38;;;2.20;;
72771;SDS011;60894;42.544;1.516;2023-05-17T10:25:55;4.72;;;1.90;;
72771;SDS011;60894;42.544;1.516;2023-05-17T10:28:22;6.00;;;1.57;;
72771;SDS011;60894;42.544;1.516;2023-05-17T10:30:49;5.07;;;1.90;;
72771;SDS011;60894;42.544;1.516;2023-05-17T10:33:20;5.82;;;1.73;;
72771;SDS011;60894;42.544;1.516;2023-05-17T10:35:48;5.78;;;1.80;;
72771;SDS011;60894;42.544;1.516;2023-05-17T10:38:15;9.50;;;2.10;;
72771;SDS011;60894;42.544;1.516;2023-05-17T10:40:43;4.77;;;1.60;;
72771;SDS011;60894;42.544;1.516;2023-05-17T10:43:12;5.53;;;1.90;;
72771;SDS011;60894;42.544;1.516;2023-05-17T10:45:40;7.55;;;2.22;;
72771;SDS011;60894;42.544;1.516;2023-05-17T10:48:08;5.82;;;1.80;;
72771;SDS011;60894;42.544;1.516;2023-05-17T10:50:37;8.23;;;2.00;;
72771;SDS011;60894;42.544;1.516;2023-05-17T10:53:07;7.57;;;2.10;;
72771;SDS011;60894;42.544;1.516;2023-05-17T10:55:36;8.38;;;2.47;;
72771;SDS011;60894;42.544;1.516;2023-05-17T10:58:12;5.30;;;1.85;;
72771;SDS011;60894;42.544;1.516;2023-05-17T11:00:44;5.78;;;1.80;;
72771;SDS011;60894;42.544;1.516;2023-05-17T11:03:13;7.68;;;1.85;;
72771;SDS011;60894;42.544;1.516;2023-05-17T11:05:42;4.77;;;1.93;;
72771;SDS011;60894;42.544;1.516;2023-05-17T11:08:12;5.97;;;2.03;;
72771;SDS011;60894;42.544;1.516;2023-05-17T11:13:45;5.25;;;1.55;;
72771;SDS011;60894;42.544;1.516;2023-05-17T11:16:16;6.32;;;1.90;;
72771;SDS011;60894;42.544;1.516;2023-05-17T11:18:46;5.50;;;1.70;;
72771;SDS011;60894;42.544;1.516;2023-05-17T11:21:18;5.45;;;1.70;;
72771;SDS011;60894;42.544;1.516;2023-05-17T11:23:47;4.93;;;1.73;;
72771;SDS011;60894;42.544;1.516;2023-05-17T11:26:20;5.20;;;1.55;;
72771;SDS011;60894;42.544;1.516;2023-05-17T11:28:59;3.88;;;1.60;;
72771;SDS011;60894;42.544;1.516;2023-05-17T11:31:28;6.43;;;1.70;;
72771;SDS011;60894;42.544;1.516;2023-05-17T11:33:56;4.93;;;1.50;;
72771;SDS011;60894;42.544;1.516;2023-05-17T11:36:25;4.78;;;1.67;;
72771;SDS011;60894;42.544;1.516;2023-05-17T11:39:09;6.22;;;2.00;;
72771;SDS011;60894;42.544;1.516;2023-05-17T11:41:36;5.60;;;1.60;;
72771;SDS011;60894;42.544;1.516;2023-05-17T11:44:06;7.07;;;1.60;;
72771;SDS011;60894;42.544;1.516;2023-05-17T11:46:34;5.80;;;1.88;;
72771;SDS011;60894;42.544;1.516;2023-05-17T11:49:05;4.00;;;1.60;;
72771;SDS011;60894;42.544;1.516;2023-05-17T11:51:33;5.35;;;1.58;;
72771;SDS011;60894;42.544;1.516;2023-05-17T11:54:01;5.55;;;1.95;;
72771;SDS011;60894;42.544;1.516;2023-05-17T11:56:33;5.43;;;1.87;;
72771;SDS011;60894;42.544;1.516;2023-05-17T11:59:00;6.95;;;1.85;;
72771;SDS011;60894;42.544;1.516;2023-05-17T12:01:28;5.90;;;1.70;;
72771;SDS011;60894;42.544;1.516;2023-05-17T12:04:07;4.85;;;1.48;;
72771;SDS011;60894;42.544;1.516;2023-05-17T12:06:35;6.95;;;1.70;;
72771;SDS011;60894;42.544;1.516;2023-05-17T12:09:02;8.10;;;1.93;;
72771;SDS011;60894;42.544;1.516;2023-05-17T12:11:34;6.60;;;1.92;;
72771;SDS011;60894;42.544;1.516;2023-05-17T12:14:03;5.45;;;1.67;;
72771;SDS011;60894;42.544;1.516;2023-05-17T12:16:31;4.47;;;1.45;;
72771;SDS011;60894;42.544;1.516;2023-05-17T12:19:00;5.38;;;1.60;;
72771;SDS011;60894;42.544;1.516;2023-05-17T12:21:27;5.90;;;1.80;;
72771;SDS011;60894;42.544;1.516;2023-05-17T12:23:55;5.88;;;1.77;;
72771;SDS011;60894;42.544;1.516;2023-05-17T12:26:22;4.88;;;1.67;;
72771;SDS011;60894;42.544;1.516;2023-05-17T12:28:53;5.75;;;1.70;;
72771;SDS011;60894;42.544;1.516;2023-05-17T12:31:23;6.95;;;2.05;;
72771;SDS011;60894;42.544;1.516;2023-05-17T12:33:51;3.90;;;1.40;;
72771;SDS011;60894;42.544;1.516;2023-05-17T12:36:18;5.13;;;1.60;;
72771;SDS011;60894;42.544;1.516;2023-05-17T12:38:47;4.32;;;1.50;;
72771;SDS011;60894;42.544;1.516;2023-05-17T12:41:15;4.97;;;1.58;;
72771;SDS011;60894;42.544;1.516;2023-05-17T12:43:43;4.53;;;1.60;;
72771;SDS011;60894;42.544;1.516;2023-05-17T12:46:11;4.50;;;1.50;;
72771;SDS011;60894;42.544;1.516;2023-05-17T12:48:41;6.10;;;1.63;;
72771;SDS011;60894;42.544;1.516;2023-05-17T12:51:08;4.57;;;1.60;;
72771;SDS011;60894;42.544;1.516;2023-05-17T12:53:37;6.30;;;1.60;;
72771;SDS011;60894;42.544;1.516;2023-05-17T12:56:05;5.00;;;1.52;;
72771;SDS011;60894;42.544;1.516;2023-05-17T12:58:35;4.07;;;1.50;;
72771;SDS011;60894;42.544;1.516;2023-05-17T13:01:02;5.03;;;1.60;;
72771;SDS011;60894;42.544;1.516;2023-05-17T13:03:31;5.55;;;1.88;;
72771;SDS011;60894;42.544;1.516;2023-05-17T13:06:00;4.18;;;1.40;;
72771;SDS011;60894;42.544;1.516;2023-05-17T13:08:27;4.57;;;1.60;;
72771;SDS011;60894;42.544;1.516;2023-05-17T13:11:04;6.30;;;1.47;;
72771;SDS011;60894;42.544;1.516;2023-05-17T13:13:33;5.75;;;1.60;;
72771;SDS011;60894;42.544;1.516;2023-05-17T13:16:01;5.35;;;1.50;;
72771;SDS011;60894;42.544;1.516;2023-05-17T13:18:28;5.93;;;1.55;;
72771;SDS011;60894;42.544;1.516;2023-05-17T13:20:55;4.47;;;1.40;;
72771;SDS011;60894;42.544;1.516;2023-05-17T13:23:22;3.87;;;1.30;;
72771;SDS011;60894;42.544;1.516;2023-05-17T13:25:49;3.42;;;1.33;;
72771;SDS011;60894;42.544;1.516;2023-05-17T13:28:15;5.97;;;1.60;;
72771;SDS011;60894;42.544;1.516;2023-05-17T13:30:44;5.13;;;1.40;;
72771;SDS011;60894;42.544;1.516;2023-05-17T13:33:16;6.60;;;1.90;;
72771;SDS011;60894;42.544;1.516;2023-05-17T13:35:43;5.90;;;1.70;;
72771;SDS011;60894;42.544;1.516;2023-05-17T13:38:10;4.55;;;1.50;;
72771;SDS011;60894;42.544;1.516;2023-05-17T13:40:37;4.82;;;1.40;;
72771;SDS011;60894;42.544;1.516;2023-05-17T13:43:05;5.63;;;1.55;;
72771;SDS011;60894;42.544;1.516;2023-05-17T13:45:33;5.55;;;1.88;;
72771;SDS011;60894;42.544;1.516;2023-05-17T13:48:01;4.73;;;1.67;;
72771;SDS011;60894;42.544;1.516;2023-05-17T13:50:28;4.43;;;1.40;;
72771;SDS011;60894;42.544;1.516;2023-05-17T13:52:55;7.47;;;1.40;;
72771;SDS011;60894;42.544;1.516;2023-05-17T13:55:22;6.40;;;1.50;;
72771;SDS011;60894;42.544;1.516;2023-05-17T13:57:50;8.13;;;1.55;;
72771;SDS011;60894;42.544;1.516;2023-05-17T14:00:17;5.53;;;1.70;;
72771;SDS011;60894;42.544;1.516;2023-05-17T14:02:44;9.15;;;3.75;;
72771;SDS011;60894;42.544;1.516;2023-05-17T14:05:13;5.05;;;1.52;;
72771;SDS011;60894;42.544;1.516;2023-05-17T14:07:40;4.78;;;1.40;;
72771;SDS011;60894;42.544;1.516;2023-05-17T14:10:09;4.28;;;1.50;;
72771;SDS011;60894;42.544;1.516;2023-05-17T14:12:37;4.87;;;1.60;;
72771;SDS011;60894;42.544;1.516;2023-05-17T14:15:05;4.53;;;1.67;;
72771;SDS011;60894;42.544;1.516;2023-05-17T14:17:33;7.00;;;1.90;;
72771;SDS011;60894;42.544;1.516;2023-05-17T14:20:00;5.05;;;1.50;;
72771;SDS011;60894;42.544;1.516;2023-05-17T14:22:30;4.85;;;1.73;;
72771;SDS011;60894;42.544;1.516;2023-05-17T14:24:57;4.43;;;1.40;;
72771;SDS011;60894;42.544;1.516;2023-05-17T14:27:24;6.00;;;1.95;;
72771;SDS011;60894;42.544;1.516;2023-05-17T14:29:51;6.53;;;2.22;;
72771;SDS011;60894;42.544;1.516;2023-05-17T14:32:18;5.55;;;1.52;;
72771;SDS011;60894;42.544;1.516;2023-05-17T14:34:45;4.97;;;1.50;;
72771;SDS011;60894;42.544;1.516;2023-05-17T14:37:11;4.33;;;1.47;;
72771;SDS011;60894;42.544;1.516;2023-05-17T14:39:40;5.70;;;1.50;;
72771;SDS011;60894;42.544;1.516;2023-05-17T14:42:07;5.20;;;1.85;;
72771;SDS011;60894;42.544;1.516;2023-05-17T14:44:34;7.65;;;1.88;;
72771;SDS011;60894;42.544;1.516;2023-05-17T14:47:04;8.00;;;1.80;;
72771;SDS011;60894;42.544;1.516;2023-05-17T14:49:32;4.43;;;1.43;;
72771;SDS011;60894;42.544;1.516;2023-05-17T14:51:59;5.20;;;1.58;;
72771;SDS011;60894;42.544;1.516;2023-05-17T14:54:26;5.20;;;1.65;;
72771;SDS011;60894;42.544;1.516;2023-05-17T14:56:57;6.38;;;1.60;;